Barkam, China
Current Conditions -  °F | °C
As of 5:00 PM on Sunday 23 Nov 2014 (Local Time) from ZUUU Reporting Station
Haze Haze  
Wind Chill: 59°   Ceiling: Unl
Heat Index: 59°   Visibility: 2.8mi
Dew Point: 50°   Wind: 0mph
Humidity: 72%   Direction: NA
Pressure: 30"   Gusts: NA
Location:  31.9°N, 102.23°E
Report Text: ZUUU 230900Z 00000MPS 4500 BR SCT050 15/10 Q1016 NOSIG
Loading
Personal Weather Stations






























Interactive Weather Map New forecast layout! Learn more

10-Day Weather Forecast

Advertisements
Track Severe Weather on mobile